Detalii statie ERDEI ROBERT [00001D0F]

Toti senzorii

Date Temperatura solului [C]Precipitatii [mm]Voltaj baterie [mV]Leaf Wetness [Min]HC Air temperature [C]HC Relative humidity [%]Punctul de roua [C]
medieminmaxsumaultimatimpmedieminmaxmediemediemin
2020-01-25 15:00:00 0 7148 0.28 -0.28 1.05 0 0 0
2020-01-25 16:00:00 0 7138 -0.22 -0.37 -0.02 0 0 0
2020-01-25 17:00:00 0 6834 -0.85 -1.4 -0.32 0 0 0
2020-01-25 18:00:00 0 6786 -1.8 -2.04 -1.5 0 0 0
2020-01-25 19:00:00 0 6776 -2.14 -2.27 -2.06 0 0 0
2020-01-25 20:00:00 0 6756 -2.1 -2.16 -2.06 0 0 0
2020-01-25 21:00:00 0 6748 -2.11 -2.19 -2 0 0 0
2020-01-25 22:00:00 0 6748 -2.15 -2.21 -2.11 0 0 0
2020-01-25 23:00:00 0 6738 -2.2 -2.34 -2.1 0 0 0
2020-01-26 00:00:00 0 6738 -2.3 -2.39 -2.17 0 0 0
2020-01-26 01:00:00 0 6738 -2.03 -2.17 -1.88 0 0 0
2020-01-26 02:00:00 0 6728 -1.76 -1.89 -1.65 0 0 0
2020-01-26 03:00:00 0 6728 -1.49 -1.63 -1.42 0 0 0
2020-01-26 04:00:00 0 6728 -1.32 -1.42 -1.21 0 0 0
2020-01-26 05:00:00 0 6728 -1.12 -1.19 -1.05 0 0 0
2020-01-26 06:00:00 0 6728 -0.99 -1.06 -0.93 0 0 0
2020-01-26 07:00:00 0 6728 -1.14 -1.21 -1.02 0 0 0
2020-01-26 08:00:00 0 6728 -1.26 -1.42 -1.16 0 0 0
2020-01-26 09:00:00 0 6738 -1.32 -1.44 -1.14 0 0 0
2020-01-26 10:00:00 0 6776 -0.74 -1 -0.49 0 0 0
2020-01-26 11:00:00 0 6864 0.23 -0.33 0.78 0 0 0
2020-01-26 12:00:00 0 6894 0.96 0.75 1.43 0 0 0
2020-01-26 13:00:00 0 6932 1.88 1.26 2.48 0 0 0
2020-01-26 14:00:00 0 7000 2.65 2.26 3.42 0 0 0
2020-01-26 15:00:00 0 6992 3.28 3.18 3.42 0 0 0
2020-01-26 16:00:00 0 6864 3.19 3.02 3.41 0 0 0
2020-01-26 17:00:00 0 6806 2.63 2.2 2.99 0 0 0
2020-01-26 18:00:00 0 6776 1.82 1.56 2.12 0 0 0
2020-01-26 19:00:00 0 6766 1.5 1.39 1.62 0 0 0
2020-01-26 20:00:00 0 6756 1.37 1.26 1.44 0 0 0
2020-01-26 21:00:00 0 6748 1.07 0.87 1.38 0 0 0
2020-01-26 22:00:00 0 6738 0.83 0.57 1.03 0 0 0
2020-01-26 23:00:00 0 6728 0.32 -0.13 0.51 0 0 0
2020-01-27 00:00:00 0 6728 -0.38 -0.54 -0.08 0 0 0
2020-01-27 01:00:00 0 6718 -0.73 -1.06 -0.39 0 0 0
2020-01-27 02:00:00 0 6718 -0.96 -1.14 -0.87 0 0 0
2020-01-27 03:00:00 0 6708 -1.32 -1.66 -1.07 0 0 0
2020-01-27 04:00:00 0 6708 -1.43 -1.76 -1.15 0 0 0
2020-01-27 05:00:00 0 6708 -1.52 -2.03 -1.17 0 0 0
2020-01-27 06:00:00 0 6708 -1.57 -1.99 -1.14 0 0 0
2020-01-27 07:00:00 0 6708 -0.68 -1.07 -0.42 0 0 0
2020-01-27 08:00:00 0 6718 -0.17 -0.37 -0.09 0 0 0
2020-01-27 09:00:00 0 6748 0.02 -0.14 0.23 0 0 0
2020-01-27 10:00:00 0 6806 0.56 0.29 0.81 0 0 0
2020-01-27 11:00:00 0 6816 0.92 0.82 1.04 0 0 0
2020-01-27 12:00:00 0.4 6816 1.34 1.1 1.45 0 0 0
2020-01-27 13:00:00 0.8 6834 1.5 1.27 1.77 0 0 0
2020-01-27 14:00:00 0.6 6834 1.92 1.75 2.01 0 0 0